Time;durP1;ratioP1;P1;durP2;ratioP2;P2;SDS_P1;SDS_P2;PMS_P1;PMS_P2;Temp;Humidity;BMP_temperature;BMP_pressure;BME280_temperature;BME280_humidity;BME280_pressure;Samples;Min_cycle;Max_cycle;Signal;HPM_P1;HPM_P2
2023/01/14 00:01:18;;;;;;;0.90;0.40;;;5.90;99.90;;;;;;5074518;28;20473;-51
2023/01/14 00:03:47;;;;;;;1.20;0.40;;;5.90;99.90;;;;;;5075395;28;20842;-55
2023/01/14 00:06:16;;;;;;;1.80;0.40;;;5.90;99.90;;;;;;5075094;28;20439;-53
2023/01/14 00:08:44;;;;;;;0.93;0.30;;;5.90;99.90;;;;;;5074801;28;20813;-53
2023/01/14 00:11:13;;;;;;;0.70;0.30;;;6.00;99.90;;;;;;5075185;28;20485;-52
2023/01/14 00:13:41;;;;;;;3.00;0.40;;;6.00;99.90;;;;;;5074626;28;20460;-54
2023/01/14 00:16:12;;;;;;;1.20;0.40;;;6.10;99.90;;;;;;5074461;28;20507;-53
2023/01/14 00:18:40;;;;;;;1.30;0.40;;;6.10;99.90;;;;;;5074593;28;20830;-53
2023/01/14 00:21:12;;;;;;;0.80;0.30;;;6.00;99.90;;;;;;5073830;28;20528;-49
2023/01/14 00:23:40;;;;;;;1.40;0.30;;;5.90;99.90;;;;;;5074985;28;20451;-54
2023/01/14 00:26:10;;;;;;;1.60;0.60;;;5.90;99.90;;;;;;5075240;28;20466;-55
2023/01/14 00:28:38;;;;;;;2.40;0.40;;;5.80;99.90;;;;;;5074520;28;20461;-51
2023/01/14 00:31:09;;;;;;;1.42;0.55;;;5.70;99.90;;;;;;5074717;28;20515;-51
2023/01/14 00:33:37;;;;;;;1.30;0.40;;;5.60;99.90;;;;;;5073441;28;20418;-50
2023/01/14 00:36:06;;;;;;;1.48;0.47;;;5.60;99.90;;;;;;5074106;28;20891;-51
2023/01/14 00:38:35;;;;;;;1.80;0.40;;;5.60;99.90;;;;;;5071864;28;20523;-51
2023/01/14 00:41:07;;;;;;;0.60;0.40;;;5.60;99.90;;;;;;5073666;28;20629;-55
2023/01/14 00:43:35;;;;;;;2.00;0.50;;;5.50;99.90;;;;;;5074751;28;20423;-55
2023/01/14 00:46:05;;;;;;;1.38;0.40;;;5.40;99.90;;;;;;5074451;28;20780;-54
2023/01/14 00:48:32;;;;;;;1.55;0.40;;;5.30;99.90;;;;;;5074049;28;20431;-55
2023/01/14 00:51:00;;;;;;;1.17;0.30;;;5.30;99.90;;;;;;5074247;28;20443;-55
2023/01/14 00:53:27;;;;;;;1.60;0.40;;;5.30;99.90;;;;;;5074796;28;20731;-55
2023/01/14 00:55:56;;;;;;;2.40;0.40;;;5.30;99.90;;;;;;5074219;28;20430;-54
2023/01/14 00:58:23;;;;;;;2.10;0.40;;;5.20;99.90;;;;;;5073476;28;20815;-54
2023/01/14 01:00:51;;;;;;;0.90;0.40;;;5.20;99.90;;;;;;5073417;28;20427;-55
2023/01/14 01:03:19;;;;;;;3.25;0.30;;;5.30;99.90;;;;;;5073775;28;20419;-55
2023/01/14 01:05:47;;;;;;;1.30;0.38;;;5.30;99.90;;;;;;5074021;28;20427;-56
2023/01/14 01:08:17;;;;;;;1.67;0.40;;;5.30;99.90;;;;;;5073345;28;20447;-55
2023/01/14 01:10:44;;;;;;;1.90;0.40;;;5.40;99.90;;;;;;5072815;28;20727;-54
2023/01/14 01:13:13;;;;;;;0.70;0.40;;;5.40;99.90;;;;;;5074400;28;20496;-52
2023/01/14 01:15:42;;;;;;;0.70;0.30;;;5.50;99.90;;;;;;5073359;28;20486;-52
2023/01/14 01:18:11;;;;;;;1.00;0.30;;;5.50;99.90;;;;;;5072975;28;20426;-55
2023/01/14 01:20:39;;;;;;;0.75;0.30;;;5.60;99.90;;;;;;5073975;28;20437;-56
2023/01/14 01:23:08;;;;;;;1.67;0.30;;;5.60;99.90;;;;;;5074085;28;20510;-55
2023/01/14 01:25:35;;;;;;;0.90;0.30;;;5.60;99.90;;;;;;5074315;28;20431;-50
2023/01/14 01:28:03;;;;;;;1.30;0.30;;;5.60;99.90;;;;;;5074735;28;20407;-55
2023/01/14 01:30:32;;;;;;;1.40;0.30;;;5.50;99.90;;;;;;5074061;28;20523;-52
2023/01/14 01:33:00;;;;;;;1.25;0.40;;;5.50;99.90;;;;;;5074102;28;20817;-53
2023/01/14 01:35:28;;;;;;;1.17;0.30;;;5.50;99.90;;;;;;5074236;28;20437;-53
2023/01/14 01:37:55;;;;;;;1.27;0.30;;;5.50;99.90;;;;;;5076927;28;20442;-52
2023/01/14 01:40:22;;;;;;;2.40;0.45;;;5.40;99.90;;;;;;5077499;28;20526;-55
2023/01/14 01:42:55;;;;;;;2.00;0.30;;;5.40;99.90;;;;;;5077809;28;20490;-55
2023/01/14 01:45:39;;;;;;;0.80;0.30;;;5.50;99.90;;;;;;5077647;28;20423;-59
2023/01/14 01:48:11;;;;;;;1.60;0.50;;;5.50;99.90;;;;;;5077926;28;20510;-54
2023/01/14 01:50:38;;;;;;;0.98;0.30;;;5.60;99.90;;;;;;5077737;28;20445;-56
2023/01/14 01:53:08;;;;;;;1.20;0.40;;;5.50;99.90;;;;;;5077756;28;20427;-53
2023/01/14 01:55:37;;;;;;;2.10;0.40;;;5.60;99.90;;;;;;5077490;28;20523;-55
2023/01/14 01:58:05;;;;;;;1.02;0.30;;;5.50;99.90;;;;;;5078080;28;20419;-54
2023/01/14 02:00:32;;;;;;;1.00;0.40;;;5.70;99.90;;;;;;5078133;28;20781;-56
2023/01/14 02:03:03;;;;;;;1.10;0.30;;;5.70;99.90;;;;;;5077531;28;20549;-52
2023/01/14 02:05:30;;;;;;;0.82;0.30;;;5.70;99.90;;;;;;5078048;28;20526;-56
2023/01/14 02:07:59;;;;;;;0.73;0.30;;;5.90;99.90;;;;;;5076955;28;20470;-52
2023/01/14 02:10:37;;;;;;;1.15;0.40;;;5.90;99.90;;;;;;5077080;28;20423;-50
2023/01/14 02:13:26;;;;;;;2.85;0.40;;;5.90;99.90;;;;;;5076831;28;20426;-54
2023/01/14 02:16:06;;;;;;;0.98;0.40;;;6.00;99.90;;;;;;5075983;28;20514;-53
2023/01/14 02:18:48;;;;;;;1.00;0.30;;;6.00;99.90;;;;;;5076637;28;20477;-54
2023/01/14 02:21:20;;;;;;;1.58;0.30;;;6.10;99.90;;;;;;5074683;28;20431;-53
2023/01/14 02:24:36;;;;;;;1.08;0.30;;;6.10;99.90;;;;;;5074515;28;20423;-53
2023/01/14 02:27:25;;;;;;;2.30;0.50;;;6.00;99.90;;;;;;5072715;28;21089;-54
2023/01/14 02:30:31;;;;;;;2.10;0.30;;;5.90;99.90;;;;;;5072945;28;20475;-53
2023/01/14 02:33:11;;;;;;;1.27;0.40;;;5.90;99.90;;;;;;5051317;28;20451;-53
2023/01/14 02:35:43;;;;;;;2.03;0.45;;;5.80;99.90;;;;;;5073556;28;20459;-54
2023/01/14 02:38:25;;;;;;;1.23;0.30;;;5.70;99.90;;;;;;5074770;28;20757;-51
2023/01/14 02:40:57;;;;;;;1.10;0.32;;;5.60;99.90;;;;;;5075910;28;20877;-52
2023/01/14 02:46:21;;;;;;;0.90;0.40;;;5.50;99.90;;;;;;5076397;28;20402;-49
2023/01/14 02:48:52;;;;;;;0.88;0.30;;;5.70;99.90;;;;;;5076054;28;20552;-52
2023/01/14 02:51:20;;;;;;;1.65;0.35;;;5.70;99.90;;;;;;5075184;28;20731;-52
2023/01/14 02:53:47;;;;;;;1.05;0.40;;;5.70;99.90;;;;;;5075334;28;20419;-51
2023/01/14 02:56:15;;;;;;;1.53;0.30;;;5.70;99.90;;;;;;5075310;28;20583;-54
2023/01/14 02:59:15;;;;;;;2.30;0.40;;;5.80;99.90;;;;;;5075357;28;20426;-56
2023/01/14 03:01:59;;;;;;;1.00;0.40;;;5.70;99.90;;;;;;5074717;28;20526;-51
2023/01/14 03:04:47;;;;;;;1.77;0.50;;;5.60;99.90;;;;;;5074960;28;20431;-51
2023/01/14 03:07:19;;;;;;;0.60;0.30;;;5.60;99.90;;;;;;5075009;28;20847;-53
2023/01/14 03:10:00;;;;;;;1.20;0.40;;;5.60;99.90;;;;;;5074246;28;20522;-52
2023/01/14 03:12:39;;;;;;;3.40;0.88;;;5.80;99.90;;;;;;5074796;28;20451;-53
2023/01/14 03:15:17;;;;;;;1.40;0.30;;;5.80;99.90;;;;;;5074055;28;20438;-51
2023/01/14 03:17:51;;;;;;;1.30;0.40;;;5.90;99.90;;;;;;5074294;28;20790;-53
2023/01/14 03:20:24;;;;;;;1.90;0.30;;;5.80;99.90;;;;;;5074037;28;20472;-55
2023/01/14 03:22:53;;;;;;;1.38;0.30;;;5.90;99.90;;;;;;5074237;28;20420;-55
2023/01/14 03:25:23;;;;;;;1.25;0.30;;;5.90;99.90;;;;;;5074591;28;20435;-52
2023/01/14 03:27:54;;;;;;;0.70;0.30;;;5.90;99.90;;;;;;5074667;28;20524;-50
2023/01/14 03:30:25;;;;;;;1.00;0.30;;;6.00;99.90;;;;;;5074407;28;20423;-55
2023/01/14 03:32:56;;;;;;;0.70;0.30;;;5.90;99.90;;;;;;5074843;28;20422;-56
2023/01/14 03:35:28;;;;;;;1.30;0.30;;;6.00;99.90;;;;;;5075126;28;20530;-55
2023/01/14 03:37:59;;;;;;;2.30;0.30;;;5.80;99.90;;;;;;5074775;28;20523;-54
2023/01/14 03:40:29;;;;;;;2.10;0.30;;;5.90;99.90;;;;;;5074773;28;20431;-53
2023/01/14 03:43:01;;;;;;;1.10;0.25;;;5.70;99.90;;;;;;5074573;28;20914;-53
2023/01/14 03:45:31;;;;;;;1.98;0.30;;;5.70;99.90;;;;;;5075099;28;20430;-56
2023/01/14 03:47:58;;;;;;;1.25;0.30;;;5.70;99.90;;;;;;5074615;28;20447;-51
2023/01/14 03:50:33;;;;;;;0.60;0.30;;;5.70;99.90;;;;;;5074557;28;20451;-55
2023/01/14 03:53:16;;;;;;;0.50;0.20;;;5.60;99.90;;;;;;5074854;28;20922;-55
2023/01/14 03:55:53;;;;;;;0.70;0.20;;;5.60;99.90;;;;;;5073649;28;20428;-56
2023/01/14 03:58:30;;;;;;;0.60;0.20;;;5.70;99.90;;;;;;5072471;28;20416;-52
2023/01/14 04:01:02;;;;;;;1.50;0.22;;;5.60;99.90;;;;;;5072717;28;20533;-55
2023/01/14 04:03:30;;;;;;;1.30;0.30;;;5.70;99.90;;;;;;5072228;28;20518;-51
2023/01/14 04:05:59;;;;;;;0.70;0.20;;;5.70;99.90;;;;;;5073008;28;20798;-55
2023/01/14 04:08:26;;;;;;;0.90;0.30;;;5.60;99.90;;;;;;5073118;28;20429;-54
2023/01/14 04:10:54;;;;;;;1.00;0.30;;;5.70;99.90;;;;;;5005463;28;1941946;-54
2023/01/14 04:16:06;;;;;;;1.40;0.38;;;5.80;99.90;;;;;;5074927;28;20806;-54
2023/01/14 04:18:33;;;;;;;1.23;0.22;;;5.80;99.90;;;;;;5074669;28;20481;-51
2023/01/14 04:21:02;;;;;;;1.45;0.30;;;5.70;99.90;;;;;;5075258;28;20431;-54
2023/01/14 04:23:29;;;;;;;1.35;0.20;;;5.70;99.90;;;;;;5075314;28;20450;-54
2023/01/14 04:25:57;;;;;;;0.90;0.30;;;5.80;99.90;;;;;;5075311;28;20434;-55
2023/01/14 04:28:25;;;;;;;1.70;0.40;;;5.70;99.90;;;;;;5074670;28;20433;-52
2023/01/14 04:30:52;;;;;;;0.60;0.20;;;5.60;99.90;;;;;;5075015;28;20419;-49
2023/01/14 04:33:20;;;;;;;1.02;0.47;;;5.50;99.90;;;;;;5073960;28;20504;-56
2023/01/14 04:35:49;;;;;;;2.00;0.40;;;5.50;99.90;;;;;;5075227;28;20427;-49
2023/01/14 04:38:20;;;;;;;0.88;0.25;;;5.60;99.90;;;;;;5074049;28;20425;-55
2023/01/14 04:40:49;;;;;;;0.82;0.30;;;5.60;99.90;;;;;;5074662;28;20439;-53
2023/01/14 04:43:15;;;;;;;1.08;0.22;;;5.60;99.90;;;;;;5074405;28;20824;-52
2023/01/14 04:45:42;;;;;;;1.50;0.20;;;5.60;99.90;;;;;;5075080;28;20428;-54
2023/01/14 04:48:10;;;;;;;0.98;0.30;;;5.70;99.90;;;;;;5074444;28;20902;-53
2023/01/14 04:50:44;;;;;;;1.10;0.20;;;5.60;99.90;;;;;;5074183;28;20420;-52
2023/01/14 04:53:12;;;;;;;0.93;0.20;;;5.60;99.90;;;;;;5074562;28;20427;-49
2023/01/14 04:55:43;;;;;;;1.00;0.30;;;5.60;99.90;;;;;;5074531;28;20522;-54
2023/01/14 04:58:14;;;;;;;0.70;0.20;;;5.50;99.90;;;;;;5074391;28;20446;-56
2023/01/14 05:00:41;;;;;;;3.05;0.30;;;5.60;99.90;;;;;;5073737;28;20492;-54
2023/01/14 05:03:10;;;;;;;1.10;0.20;;;5.80;99.90;;;;;;5072808;28;20416;-52
2023/01/14 05:05:38;;;;;;;1.08;0.45;;;6.00;99.90;;;;;;5073409;28;20569;-55
2023/01/14 05:08:07;;;;;;;0.70;0.30;;;5.80;99.90;;;;;;5073247;28;20422;-55
2023/01/14 05:10:35;;;;;;;1.40;0.30;;;5.80;99.90;;;;;;5074749;28;20543;-56
2023/01/14 05:13:07;;;;;;;1.05;0.20;;;5.80;99.90;;;;;;5077857;28;20423;-55
2023/01/14 05:15:36;;;;;;;2.40;0.50;;;5.80;99.90;;;;;;5078122;28;20465;-52
2023/01/14 05:18:04;;;;;;;2.10;0.40;;;5.70;99.90;;;;;;5077934;28;20730;-52
2023/01/14 05:20:31;;;;;;;0.75;0.30;;;5.70;99.90;;;;;;5077965;28;20427;-51
2023/01/14 05:23:00;;;;;;;0.60;0.20;;;5.60;99.90;;;;;;5077799;28;20510;-53
2023/01/14 05:25:29;;;;;;;1.83;0.30;;;5.50;99.90;;;;;;5078321;28;20435;-51
2023/01/14 05:27:59;;;;;;;0.82;0.20;;;5.50;99.90;;;;;;5078394;28;20506;-52
2023/01/14 05:30:29;;;;;;;2.20;0.38;;;5.60;99.90;;;;;;5077741;28;20427;-52
2023/01/14 05:32:56;;;;;;;0.90;0.20;;;5.60;99.90;;;;;;5076371;28;20429;-53
2023/01/14 05:35:23;;;;;;;1.33;0.30;;;5.50;99.90;;;;;;5077126;28;20434;-53
2023/01/14 05:37:51;;;;;;;2.10;0.40;;;5.40;99.90;;;;;;5077014;28;20498;-56
2023/01/14 05:40:18;;;;;;;1.80;0.30;;;5.30;99.90;;;;;;5077405;28;20526;-56
2023/01/14 05:45:48;;;;;;;1.25;0.30;;;5.30;99.90;;;;;;5077653;28;20411;-55
2023/01/14 05:48:15;;;;;;;0.80;0.20;;;5.30;99.90;;;;;;5078028;28;20787;-54
2023/01/14 05:50:43;;;;;;;0.85;0.30;;;5.40;99.90;;;;;;5078074;28;20520;-54
2023/01/14 05:53:10;;;;;;;0.80;0.20;;;5.40;99.90;;;;;;5078143;28;20419;-56
2023/01/14 05:55:37;;;;;;;0.90;0.20;;;5.40;99.90;;;;;;5078034;28;20427;-56
2023/01/14 05:58:06;;;;;;;0.70;0.20;;;5.50;99.90;;;;;;5077832;28;20790;-51
2023/01/14 06:06:25;;;;;;;1.25;0.30;;;5.40;99.90;;;;;;5077341;28;20805;-55
2023/01/14 06:08:54;;;;;;;1.17;0.20;;;5.50;99.90;;;;;;5076977;28;20427;-56
2023/01/14 06:11:23;;;;;;;0.50;0.20;;;5.50;99.90;;;;;;5077657;28;20490;-56
2023/01/14 06:13:51;;;;;;;2.53;0.80;;;5.50;99.90;;;;;;5077200;28;20451;-55
2023/01/14 06:16:20;;;;;;;1.08;0.40;;;5.40;99.90;;;;;;5077330;28;20894;-54
2023/01/14 06:18:48;;;;;;;1.38;0.30;;;5.40;99.90;;;;;;5077132;28;20454;-53
2023/01/14 06:21:17;;;;;;;1.40;0.20;;;5.40;99.90;;;;;;5076853;28;20523;-56
2023/01/14 06:23:44;;;;;;;1.17;0.20;;;5.50;99.90;;;;;;5077381;28;20454;-55
2023/01/14 06:26:13;;;;;;;0.70;0.30;;;5.70;99.90;;;;;;5077253;28;20422;-54
2023/01/14 06:28:41;;;;;;;1.38;0.30;;;5.70;99.90;;;;;;5076901;28;20818;-54
2023/01/14 06:31:12;;;;;;;1.25;0.20;;;5.60;99.90;;;;;;5076851;28;20468;-52
2023/01/14 06:33:42;;;;;;;1.30;0.30;;;5.70;99.90;;;;;;5076911;28;20977;-54
2023/01/14 06:36:10;;;;;;;1.20;0.30;;;5.70;99.90;;;;;;5076108;28;20506;-54
2023/01/14 06:38:38;;;;;;;1.50;0.30;;;5.70;99.90;;;;;;5075582;28;20802;-55
2023/01/14 06:41:07;;;;;;;1.90;0.30;;;5.70;99.90;;;;;;5076050;28;20550;-52
2023/01/14 06:43:35;;;;;;;0.93;0.40;;;5.70;99.90;;;;;;5076379;28;20420;-50
2023/01/14 06:46:03;;;;;;;0.68;0.30;;;5.70;99.90;;;;;;5073899;28;20415;-52
2023/01/14 06:48:30;;;;;;;0.60;0.30;;;5.90;99.90;;;;;;5076062;28;20426;-50
2023/01/14 06:51:04;;;;;;;3.42;0.50;;;5.90;99.90;;;;;;5075966;28;20776;-54
2023/01/14 06:53:31;;;;;;;1.50;0.40;;;5.80;99.90;;;;;;5057491;28;20452;-55
2023/01/14 06:56:02;;;;;;;1.60;0.20;;;5.80;99.90;;;;;;5060070;28;20481;-51
2023/01/14 06:58:29;;;;;;;1.60;0.30;;;5.80;99.90;;;;;;5081463;28;20423;-53
2023/01/14 07:00:57;;;;;;;1.95;0.20;;;5.80;99.90;;;;;;5060077;28;20514;-52
2023/01/14 07:03:24;;;;;;;1.00;0.20;;;5.80;99.90;;;;;;5076367;28;20423;-54
2023/01/14 07:05:52;;;;;;;0.80;0.30;;;5.80;99.90;;;;;;5076270;28;20591;-54
2023/01/14 07:08:21;;;;;;;2.20;0.30;;;5.70;99.90;;;;;;5076116;28;20412;-52
2023/01/14 07:10:50;;;;;;;1.10;0.30;;;5.70;99.90;;;;;;5072217;28;20435;-50
2023/01/14 07:13:18;;;;;;;1.20;0.30;;;5.60;99.90;;;;;;5074862;28;20724;-55
2023/01/14 07:15:45;;;;;;;0.90;0.20;;;5.70;99.90;;;;;;5068333;28;20431;-55
2023/01/14 07:18:12;;;;;;;0.60;0.20;;;5.80;99.90;;;;;;5075648;28;20420;-51
2023/01/14 07:20:40;;;;;;;1.30;0.30;;;5.80;99.90;;;;;;5057803;28;20434;-54
2023/01/14 07:23:07;;;;;;;1.52;0.30;;;5.90;99.90;;;;;;5055279;28;20857;-54
2023/01/14 07:25:36;;;;;;;1.50;0.30;;;6.00;99.90;;;;;;5071404;28;20432;-55
2023/01/14 07:28:04;;;;;;;1.35;0.30;;;6.00;99.90;;;;;;5075672;28;20506;-56
2023/01/14 07:30:32;;;;;;;1.10;0.35;;;6.00;99.90;;;;;;5060691;28;20433;-51
2023/01/14 07:33:00;;;;;;;1.70;0.30;;;6.20;99.90;;;;;;5055031;28;20892;-50
2023/01/14 07:35:27;;;;;;;1.90;0.30;;;6.10;99.90;;;;;;5056229;28;20459;-56
2023/01/14 07:37:55;;;;;;;0.90;0.30;;;5.90;99.90;;;;;;5059625;28;20479;-54
2023/01/14 07:40:22;;;;;;;1.45;0.30;;;6.00;99.90;;;;;;5055845;28;20429;-56
2023/01/14 07:42:57;;;;;;;1.10;0.40;;;6.00;99.90;;;;;;5073335;28;20502;-55
2023/01/14 07:45:24;;;;;;;1.93;0.40;;;6.00;99.90;;;;;;5076043;28;20507;-55
2023/01/14 07:47:51;;;;;;;0.90;0.30;;;6.00;99.90;;;;;;5062032;28;20436;-56
2023/01/14 07:50:19;;;;;;;0.60;0.30;;;6.00;99.90;;;;;;5066570;28;20433;-53
2023/01/14 07:52:53;;;;;;;1.98;0.30;;;5.90;99.90;;;;;;5068880;28;20472;-53
2023/01/14 07:55:20;;;;;;;1.13;0.30;;;6.10;99.90;;;;;;5067723;28;20566;-54
2023/01/14 07:57:48;;;;;;;1.70;0.30;;;6.10;99.90;;;;;;5056009;28;20487;-56
2023/01/14 08:00:18;;;;;;;0.77;0.40;;;6.20;99.90;;;;;;5059675;28;20465;-52
2023/01/14 08:02:45;;;;;;;1.00;0.30;;;6.20;99.90;;;;;;5066921;28;20882;-55
2023/01/14 08:05:12;;;;;;;0.70;0.30;;;6.20;99.90;;;;;;5073072;28;20437;-54
2023/01/14 08:07:40;;;;;;;0.70;0.28;;;6.30;99.90;;;;;;5071671;28;20435;-51
2023/01/14 08:10:09;;;;;;;2.17;0.40;;;6.30;99.90;;;;;;5053140;28;20748;-53
2023/01/14 08:12:36;;;;;;;1.40;0.30;;;6.30;99.90;;;;;;5066232;28;20426;-49
2023/01/14 08:15:05;;;;;;;0.70;0.30;;;6.40;99.90;;;;;;5062659;28;20724;-53
2023/01/14 08:17:34;;;;;;;1.00;0.40;;;6.50;99.90;;;;;;5067466;28;20433;-50
2023/01/14 08:20:01;;;;;;;1.65;0.30;;;6.60;99.90;;;;;;5073052;28;20423;-53
2023/01/14 08:22:29;;;;;;;0.60;0.30;;;6.60;99.90;;;;;;5068403;28;20439;-53
2023/01/14 08:24:56;;;;;;;1.13;0.30;;;6.60;99.90;;;;;;5055149;28;20452;-50
2023/01/14 08:27:24;;;;;;;2.70;1.20;;;6.70;99.90;;;;;;5055266;28;20451;-55
2023/01/14 08:29:51;;;;;;;1.60;0.50;;;6.70;99.90;;;;;;5055492;28;20432;-53
2023/01/14 08:32:18;;;;;;;1.60;0.35;;;6.80;99.90;;;;;;5054842;28;20508;-53
2023/01/14 08:34:47;;;;;;;1.50;0.40;;;6.80;99.90;;;;;;5057635;28;20436;-54
2023/01/14 08:37:14;;;;;;;4.15;1.27;;;7.00;99.90;;;;;;5074101;28;20419;-54
2023/01/14 08:39:41;;;;;;;1.17;0.50;;;7.00;99.90;;;;;;5071846;28;20435;-53
2023/01/14 08:42:09;;;;;;;1.05;0.40;;;7.10;99.90;;;;;;5069475;28;20518;-54
2023/01/14 08:44:36;;;;;;;2.90;0.50;;;7.30;99.90;;;;;;5052628;28;20428;-51
2023/01/14 08:47:03;;;;;;;1.27;0.40;;;7.30;99.90;;;;;;5053037;28;20778;-54
2023/01/14 08:49:31;;;;;;;2.60;0.50;;;7.40;99.90;;;;;;5072298;28;20518;-49
2023/01/14 08:52:00;;;;;;;1.38;0.40;;;7.40;99.90;;;;;;5072396;28;20431;-53
2023/01/14 08:54:28;;;;;;;2.17;0.60;;;7.40;99.90;;;;;;5054225;28;20440;-54
2023/01/14 08:56:56;;;;;;;1.33;0.50;;;7.40;99.90;;;;;;5054005;28;20425;-51
2023/01/14 08:59:23;;;;;;;1.50;0.40;;;7.50;99.90;;;;;;5054140;28;20796;-53
2023/01/14 09:01:50;;;;;;;1.30;0.40;;;7.60;99.90;;;;;;5052986;28;20524;-54
2023/01/14 09:04:18;;;;;;;1.60;0.40;;;7.60;99.90;;;;;;5055493;28;20519;-52
2023/01/14 09:18:03;;;;;;;1.08;0.30;;;7.90;99.90;;;;;;5028614;28;20487;-50
2023/01/14 09:20:33;;;;;;;1.52;0.30;;;8.00;99.90;;;;;;5053079;28;20526;-51
2023/01/14 09:23:01;;;;;;;2.92;0.40;;;8.00;99.90;;;;;;5067677;28;21547;-51
2023/01/14 09:25:30;;;;;;;2.30;0.30;;;8.30;99.90;;;;;;5070575;28;20574;-51
2023/01/14 09:27:57;;;;;;;0.93;0.30;;;8.40;99.90;;;;;;5062749;28;20840;-53
2023/01/14 09:30:24;;;;;;;1.00;0.30;;;8.40;99.90;;;;;;5067451;28;20444;-54
2023/01/14 09:32:52;;;;;;;0.77;0.30;;;8.30;99.90;;;;;;5059314;28;20472;-54
2023/01/14 09:35:19;;;;;;;0.70;0.30;;;8.30;99.90;;;;;;5071805;28;20439;-54
2023/01/14 09:37:46;;;;;;;1.17;0.30;;;8.10;99.90;;;;;;5056617;28;20855;-55
2023/01/14 09:40:14;;;;;;;0.50;0.30;;;8.30;99.90;;;;;;5066714;28;20863;-52
2023/01/14 09:42:47;;;;;;;1.20;0.40;;;8.20;99.90;;;;;;5059870;28;20469;-54
2023/01/14 09:45:19;;;;;;;1.90;0.40;;;8.20;99.90;;;;;;5067762;28;20935;-52
2023/01/14 09:47:46;;;;;;;1.80;0.50;;;8.20;99.90;;;;;;5069902;28;20556;-53
2023/01/14 09:50:17;;;;;;;2.40;0.50;;;8.10;99.90;;;;;;5069435;28;20442;-51
2023/01/14 09:52:57;;;;;;;1.80;0.40;;;8.20;99.90;;;;;;5055643;28;20442;-55
2023/01/14 09:55:34;;;;;;;0.60;0.30;;;8.20;99.90;;;;;;5068269;28;20513;-53
2023/01/14 09:58:09;;;;;;;1.90;0.30;;;8.20;99.90;;;;;;5055688;28;20829;-52
2023/01/14 10:00:47;;;;;;;1.00;0.30;;;8.30;99.90;;;;;;5065117;28;20504;-53
2023/01/14 10:03:24;;;;;;;1.20;0.30;;;8.40;99.90;;;;;;5064961;28;20463;-53
2023/01/14 10:05:56;;;;;;;1.40;0.30;;;8.50;99.90;;;;;;5074823;28;20518;-54
2023/01/14 10:08:27;;;;;;;0.55;0.30;;;8.50;99.90;;;;;;5068016;28;20435;-51
2023/01/14 10:10:55;;;;;;;1.70;0.40;;;8.40;99.90;;;;;;5065218;28;20567;-51
2023/01/14 10:13:28;;;;;;;1.30;0.30;;;8.50;99.90;;;;;;5066348;28;20825;-54
2023/01/14 10:15:59;;;;;;;0.60;0.20;;;8.50;99.90;;;;;;5074389;28;20451;-54
2023/01/14 10:18:32;;;;;;;0.50;0.20;;;8.70;99.90;;;;;;5068075;28;20435;-49
2023/01/14 10:21:04;;;;;;;1.50;0.30;;;8.70;99.90;;;;;;5055815;28;20835;-51
2023/01/14 10:23:39;;;;;;;0.90;0.30;;;8.80;99.90;;;;;;5064529;28;20816;-55
2023/01/14 10:26:13;;;;;;;1.75;0.20;;;8.70;99.90;;;;;;5060205;28;20716;-53
2023/01/14 10:28:43;;;;;;;1.20;0.20;;;8.70;99.90;;;;;;5065152;28;20870;-54
2023/01/14 10:31:17;;;;;;;0.60;0.20;;;8.70;99.90;;;;;;5065094;28;20443;-54
2023/01/14 10:33:45;;;;;;;0.60;0.20;;;8.70;99.90;;;;;;5060785;28;20441;-53
2023/01/14 10:36:16;;;;;;;0.80;0.30;;;8.80;99.90;;;;;;5065962;28;20425;-54
2023/01/14 10:38:44;;;;;;;0.90;0.30;;;8.70;99.90;;;;;;5057354;28;20444;-52
2023/01/14 10:41:13;;;;;;;1.77;0.30;;;8.70;99.90;;;;;;5064424;28;20428;-54
2023/01/14 10:43:44;;;;;;;2.25;0.30;;;8.90;99.90;;;;;;5070509;28;20899;-54
2023/01/14 10:46:17;;;;;;;0.77;0.30;;;8.90;99.90;;;;;;5068813;28;20435;-55
2023/01/14 10:48:51;;;;;;;1.30;0.30;;;9.00;99.90;;;;;;5058137;28;20435;-55
2023/01/14 10:51:33;;;;;;;1.30;0.20;;;9.10;99.90;;;;;;5058368;28;20435;-52
2023/01/14 10:54:15;;;;;;;1.02;0.30;;;9.20;99.90;;;;;;5063290;28;20734;-53
2023/01/14 10:56:46;;;;;;;2.95;1.58;;;9.20;99.90;;;;;;5064815;28;20555;-55
2023/01/14 10:59:39;;;;;;;0.70;0.40;;;9.10;99.90;;;;;;5064597;28;20519;-52
2023/01/14 11:02:19;;;;;;;0.60;0.25;;;9.10;99.90;;;;;;5063905;28;20456;-52
2023/01/14 11:04:46;;;;;;;0.90;0.30;;;9.20;99.90;;;;;;5066660;28;20491;-56
2023/01/14 11:07:23;;;;;;;1.27;0.40;;;9.20;99.90;;;;;;5065330;28;20533;-52
2023/01/14 11:09:51;;;;;;;1.55;0.30;;;9.30;99.90;;;;;;5061262;28;20461;-54
2023/01/14 11:12:35;;;;;;;0.80;0.30;;;9.30;99.90;;;;;;5055211;28;20498;-56
2023/01/14 11:15:05;;;;;;;0.70;0.30;;;9.30;99.90;;;;;;5063626;28;20532;-55
2023/01/14 11:17:33;;;;;;;2.00;0.30;;;9.40;99.90;;;;;;5066847;28;20506;-52
2023/01/14 11:20:24;;;;;;;0.40;0.20;;;9.40;99.90;;;;;;5062338;28;20491;-53
2023/01/14 11:22:59;;;;;;;1.10;0.20;;;9.40;99.90;;;;;;5073447;28;20434;-54
2023/01/14 11:25:26;;;;;;;0.50;0.20;;;9.50;99.90;;;;;;5062124;28;20530;-51
2023/01/14 11:27:54;;;;;;;0.90;0.22;;;9.50;99.90;;;;;;5061059;28;20431;-53
2023/01/14 11:30:25;;;;;;;1.10;0.30;;;9.50;99.90;;;;;;5074939;28;20423;-54
2023/01/14 11:32:55;;;;;;;0.40;0.20;;;9.50;99.90;;;;;;5062132;28;20434;-52
2023/01/14 11:35:26;;;;;;;0.60;0.20;;;9.50;99.90;;;;;;5070966;28;20775;-53
2023/01/14 11:37:54;;;;;;;0.47;0.20;;;9.50;99.90;;;;;;5069656;28;20591;-55
2023/01/14 11:41:28;;;;;;;0.50;0.20;;;9.60;99.90;;;;;;5063825;28;20429;-50
2023/01/14 11:43:14;;;;;;;0.80;0.20;;;9.70;99.90;;;;;;5064088;28;20838;-54
2023/01/14 11:45:43;;;;;;;0.60;0.20;;;9.70;99.90;;;;;;5067775;28;20468;-53
2023/01/14 11:48:27;;;;;;;0.70;0.20;;;9.70;99.90;;;;;;5057995;28;20517;-50
2023/01/14 11:50:58;;;;;;;0.60;0.20;;;9.70;99.90;;;;;;5065689;28;20792;-55
2023/01/14 11:53:27;;;;;;;0.50;0.20;;;9.80;99.90;;;;;;5059798;28;20413;-52
2023/01/14 11:55:55;;;;;;;0.50;0.20;;;9.80;99.90;;;;;;5065430;28;20441;-53
2023/01/14 11:58:26;;;;;;;0.73;0.20;;;9.80;99.90;;;;;;5069803;28;20732;-49
2023/01/14 12:01:00;;;;;;;0.57;0.25;;;9.90;99.90;;;;;;5066154;28;20435;-51
2023/01/14 12:03:35;;;;;;;0.50;0.20;;;9.90;99.90;;;;;;5066775;28;20946;-56
2023/01/14 12:06:06;;;;;;;0.60;0.20;;;10.00;99.90;;;;;;5065850;28;20425;-52
2023/01/14 12:08:36;;;;;;;1.90;0.20;;;10.00;99.90;;;;;;5074030;28;20795;-55
2023/01/14 12:11:05;;;;;;;0.85;0.20;;;9.90;99.90;;;;;;5069007;28;20427;-53
2023/01/14 12:19:20;;;;;;;0.50;0.20;;;9.80;99.90;;;;;;5064683;28;20496;-52
2023/01/14 12:21:53;;;;;;;0.70;0.28;;;9.90;99.90;;;;;;5069976;28;20419;-54
2023/01/14 12:24:27;;;;;;;1.10;0.20;;;9.90;99.90;;;;;;5069894;28;20523;-54
2023/01/14 12:26:57;;;;;;;1.05;0.30;;;9.80;99.90;;;;;;5070224;28;20424;-52
2023/01/14 12:29:28;;;;;;;1.67;0.70;;;9.80;99.90;;;;;;5066123;28;20445;-53
2023/01/14 12:32:04;;;;;;;0.60;0.30;;;9.80;99.90;;;;;;5063639;28;20424;-52
2023/01/14 12:34:42;;;;;;;0.60;0.20;;;9.90;99.90;;;;;;5052368;28;20435;-53
2023/01/14 12:37:14;;;;;;;0.80;0.30;;;9.90;99.90;;;;;;5062414;28;20423;-54
2023/01/14 12:48:13;;;;;;;0.50;0.20;;;9.80;99.90;;;;;;5063547;28;20426;-53
2023/01/14 12:50:48;;;;;;;0.50;0.20;;;9.80;99.90;;;;;;5069993;28;20428;-55
2023/01/14 12:53:19;;;;;;;0.70;0.30;;;9.80;99.90;;;;;;5056264;28;20425;-52
2023/01/14 12:55:49;;;;;;;0.40;0.20;;;9.80;99.90;;;;;;5058529;28;20878;-51
2023/01/14 12:58:20;;;;;;;0.60;0.23;;;9.80;99.90;;;;;;5063192;28;20459;-55
2023/01/14 13:00:51;;;;;;;1.40;0.20;;;9.70;99.90;;;;;;5063827;28;21015;-51
2023/01/14 13:03:26;;;;;;;0.50;0.22;;;9.70;99.90;;;;;;5065193;28;20742;-54
2023/01/14 13:05:54;;;;;;;0.70;0.30;;;9.70;99.90;;;;;;5061951;28;20435;-56
2023/01/14 13:08:26;;;;;;;0.60;0.20;;;9.70;99.90;;;;;;5064709;28;20431;-54
2023/01/14 13:11:05;;;;;;;0.60;0.30;;;9.80;99.90;;;;;;5071687;28;20749;-54
2023/01/14 13:13:34;;;;;;;0.67;0.20;;;9.80;99.90;;;;;;5059835;28;20510;-54
2023/01/14 13:16:04;;;;;;;0.60;0.20;;;9.80;99.90;;;;;;5062189;28;20434;-54
2023/01/14 13:18:45;;;;;;;0.50;0.30;;;9.80;99.90;;;;;;5062570;28;20869;-54
2023/01/14 13:21:12;;;;;;;0.80;0.30;;;9.80;99.90;;;;;;5060454;28;20435;-56
2023/01/14 13:24:28;;;;;;;0.70;0.20;;;9.70;99.90;;;;;;5056936;28;20725;-55
2023/01/14 13:26:59;;;;;;;0.60;0.30;;;9.70;99.90;;;;;;5039876;28;20426;-52
2023/01/14 13:29:29;;;;;;;0.65;0.28;;;9.80;99.90;;;;;;5060963;28;20552;-55
2023/01/14 13:31:57;;;;;;;0.93;0.30;;;9.80;99.90;;;;;;5062434;28;20442;-55
2023/01/14 13:35:01;;;;;;;1.25;0.30;;;9.90;99.90;;;;;;5063485;28;20534;-54
2023/01/14 13:37:33;;;;;;;0.47;0.27;;;9.80;99.90;;;;;;5063297;28;20425;-55
2023/01/14 13:40:05;;;;;;;0.60;0.40;;;9.80;99.90;;;;;;5061670;28;20941;-55
2023/01/14 13:42:38;;;;;;;1.02;0.30;;;9.90;99.90;;;;;;5069965;28;20427;-55
2023/01/14 13:45:19;;;;;;;0.80;0.20;;;9.90;99.90;;;;;;5071272;28;20746;-52
2023/01/14 13:47:50;;;;;;;0.60;0.30;;;9.90;99.90;;;;;;5065330;28;20431;-54
2023/01/14 13:50:23;;;;;;;0.57;0.20;;;9.90;99.90;;;;;;5074738;28;20549;-51
2023/01/14 13:52:54;;;;;;;1.00;0.40;;;10.00;99.90;;;;;;5072182;28;20569;-52
2023/01/14 13:55:26;;;;;;;0.82;0.30;;;10.00;99.90;;;;;;5067118;28;20433;-52
2023/01/14 13:57:56;;;;;;;0.80;0.20;;;10.00;99.90;;;;;;5055449;28;20445;-52